UIP weather

Quimper-Cornouaille Airport
Quimper/Pluguffan, Brittany, France

Public forecast

Using degrees Celsius for public forecast. Weather courtesy of forecast.io.

Current aviation weather report (METAR) for Quimper-Cornouaille Airport

Retrieved 2020/01/25 10:30 UTC (17 minutes ago):

LFRQ 251030Z AUTO 14006KT 3900 BR OVC002 08/08 Q1016 TEMPO 0800 FG VV///

Aviation forecast (TAF) for Quimper-Cornouaille Airport

Retrieved 2020/01/25 06:21 UTC (4 hours ago):

TAF LFRQ 250500Z 2506/2606 12006KT 9999 OVC009 TEMPO 2506/2606 3000 BR OVC003